createdAt,value
2022-08-23T00:00:52.000Z,959.68
2022-08-23T00:01:51.846Z,959.7
2022-08-23T00:02:52.010Z,959.65
2022-08-23T00:03:51.967Z,959.67
2022-08-23T00:05:51.983Z,959.62
2022-08-23T00:06:51.858Z,959.63
2022-08-23T00:07:51.854Z,959.5
2022-08-23T00:08:51.856Z,959.58
2022-08-23T00:09:51.852Z,959.6
2022-08-23T00:10:51.859Z,959.57
2022-08-23T00:12:51.916Z,959.55
2022-08-23T00:13:51.865Z,959.57
2022-08-23T00:14:51.860Z,959.6
2022-08-23T00:16:51.872Z,959.59
2022-08-23T00:17:51.878Z,959.62
2022-08-23T00:18:51.878Z,959.6
2022-08-23T00:19:51.885Z,959.61
2022-08-23T00:20:51.873Z,959.6
2022-08-23T00:22:51.998Z,959.61
2022-08-23T00:24:51.881Z,959.54
2022-08-23T00:25:51.892Z,959.59
2022-08-23T00:26:51.968Z,959.62
2022-08-23T00:27:51.898Z,959.63
2022-08-23T00:28:51.908Z,959.66
2022-08-23T00:29:51.906Z,959.63
2022-08-23T00:30:51.932Z,959.64
2022-08-23T00:31:51.912Z,959.59
2022-08-23T00:32:51.903Z,959.61
2022-08-23T00:34:51.909Z,959.63
2022-08-23T00:36:51.921Z,959.64
2022-08-23T00:38:05.965Z,959.63
2022-08-23T00:38:52.140Z,959.6
2022-08-23T00:39:51.965Z,959.57
2022-08-23T00:40:51.935Z,959.61
2022-08-23T00:41:51.944Z,959.58
2022-08-23T00:43:51.930Z,959.57
2022-08-23T00:44:51.985Z,959.58
2022-08-23T00:45:51.936Z,959.55
2022-08-23T00:46:52.021Z,959.52
2022-08-23T00:47:52.094Z,959.59
2022-08-23T00:48:51.951Z,959.54
2022-08-23T00:49:52.034Z,959.59
2022-08-23T00:50:51.992Z,959.6
2022-08-23T00:51:52.201Z,959.54
2022-08-23T00:52:52.125Z,959.58
2022-08-23T00:53:51.998Z,959.57
2022-08-23T00:54:51.962Z,959.56
2022-08-23T00:55:52.033Z,959.55
2022-08-23T00:56:52.001Z,959.52
2022-08-23T00:57:51.969Z,959.55
2022-08-23T00:59:51.969Z,959.48
2022-08-23T01:00:51.973Z,959.6
2022-08-23T01:02:52.021Z,959.58
2022-08-23T01:03:57.097Z,959.64
2022-08-23T01:04:52.162Z,959.65
2022-08-23T01:05:51.988Z,959.63
2022-08-23T01:06:51.990Z,959.58
2022-08-23T01:08:51.994Z,959.55
2022-08-23T01:09:52.000Z,959.63
2022-08-23T01:10:52.130Z,959.65
2022-08-23T01:11:52.002Z,959.66
2022-08-23T01:12:52.009Z,959.68
2022-08-23T01:14:52.010Z,959.67
2022-08-23T01:15:52.011Z,959.68
2022-08-23T01:16:52.011Z,959.71
2022-08-23T01:18:52.111Z,959.63
2022-08-23T01:19:52.026Z,959.64
2022-08-23T01:20:52.041Z,959.69
2022-08-23T01:21:52.037Z,959.64
2022-08-23T01:22:52.205Z,959.68
2022-08-23T01:23:52.037Z,959.67
2022-08-23T01:25:06.710Z,959.65
2022-08-23T01:25:52.160Z,959.67
2022-08-23T01:26:52.041Z,959.71
2022-08-23T01:27:52.041Z,959.69
2022-08-23T01:28:52.053Z,959.67
2022-08-23T01:29:52.158Z,959.68
2022-08-23T01:30:52.053Z,959.71
2022-08-23T01:31:52.045Z,959.69
2022-08-23T01:32:52.057Z,959.72
2022-08-23T01:33:52.062Z,959.73
2022-08-23T01:34:52.115Z,959.75
2022-08-23T01:35:52.064Z,959.7
2022-08-23T01:36:52.081Z,959.64
2022-08-23T01:37:52.099Z,959.7
2022-08-23T01:38:52.069Z,959.71
2022-08-23T01:39:52.143Z,959.69
2022-08-23T01:40:52.073Z,959.74
2022-08-23T01:42:52.083Z,959.73
2022-08-23T01:43:52.090Z,959.78
2022-08-23T01:44:52.080Z,959.8
2022-08-23T01:45:52.088Z,959.78
2022-08-23T01:46:53.078Z,959.79
2022-08-23T01:47:52.091Z,959.73
2022-08-23T01:48:52.093Z,959.75
2022-08-23T01:49:52.103Z,959.77
2022-08-23T01:50:52.091Z,959.8
2022-08-23T01:51:52.119Z,959.78
2022-08-23T01:52:52.103Z,959.77
2022-08-23T01:53:52.107Z,959.8
2022-08-23T01:54:52.102Z,959.81
2022-08-23T01:55:52.120Z,959.8
2022-08-23T01:56:52.116Z,959.84
2022-08-23T01:57:52.112Z,959.83
2022-08-23T01:58:52.133Z,959.82
2022-08-23T01:59:52.117Z,959.83
2022-08-23T02:00:52.120Z,959.86
2022-08-23T02:01:52.279Z,959.85
2022-08-23T02:02:52.199Z,959.86
2022-08-23T02:04:52.136Z,959.91
2022-08-23T02:06:52.133Z,959.92
2022-08-23T02:07:52.145Z,959.91
2022-08-23T02:08:52.203Z,959.9
2022-08-23T02:09:52.146Z,959.87
2022-08-23T02:10:52.147Z,959.9
2022-08-23T02:11:52.150Z,959.86
2022-08-23T02:12:52.150Z,959.91
2022-08-23T02:13:52.253Z,959.94
2022-08-23T02:14:52.158Z,959.9
2022-08-23T02:16:53.812Z,959.93
2022-08-23T02:18:52.348Z,959.91
2022-08-23T02:19:52.164Z,959.98
2022-08-23T02:20:52.174Z,960
2022-08-23T02:21:52.172Z,959.92
2022-08-23T02:22:52.174Z,959.96
2022-08-23T02:23:52.184Z,959.97
2022-08-23T02:25:52.182Z,959.95
2022-08-23T02:26:52.865Z,959.96
2022-08-23T02:27:52.490Z,959.94
2022-08-23T02:29:52.801Z,959.95
2022-08-23T02:30:52.206Z,959.97
2022-08-23T02:31:52.193Z,959.96
2022-08-23T02:32:52.247Z,959.94
2022-08-23T02:33:52.352Z,959.97
2022-08-23T02:35:52.204Z,959.99
2022-08-23T02:36:52.215Z,959.97
2022-08-23T02:37:52.212Z,959.95
2022-08-23T02:39:52.245Z,959.98
2022-08-23T02:40:52.883Z,960
2022-08-23T02:41:52.335Z,960.03
2022-08-23T02:42:52.229Z,960.04
2022-08-23T02:43:52.226Z,959.96
2022-08-23T02:44:52.231Z,960.01
2022-08-23T02:45:52.237Z,960.03
2022-08-23T02:46:52.240Z,960
2022-08-23T02:47:52.260Z,959.99
2022-08-23T02:49:52.254Z,959.98
2022-08-23T02:50:52.244Z,959.97
2022-08-23T02:51:52.248Z,960.03
2022-08-23T02:52:52.256Z,960.02
2022-08-23T02:53:52.250Z,959.98
2022-08-23T02:55:52.251Z,960.03
2022-08-23T02:56:52.264Z,959.99
2022-08-23T02:57:52.264Z,960.02
2022-08-23T02:58:54.097Z,960.04
2022-08-23T02:59:52.271Z,960.06
2022-08-23T03:00:52.271Z,960.05
2022-08-23T03:01:52.285Z,960.07
2022-08-23T03:02:52.290Z,960.05
2022-08-23T03:03:52.282Z,960.13
2022-08-23T03:04:52.284Z,960.09
2022-08-23T03:05:52.291Z,960.02
2022-08-23T03:06:52.298Z,960.09
2022-08-23T03:08:52.284Z,960.12
2022-08-23T03:09:52.299Z,960.11
2022-08-23T03:10:52.428Z,960.1
2022-08-23T03:11:52.295Z,960.13
2022-08-23T03:12:52.297Z,960.09
2022-08-23T03:13:52.340Z,960.16
2022-08-23T03:15:52.369Z,960.13
2022-08-23T03:16:52.312Z,960.18
2022-08-23T03:17:52.307Z,960.15
2022-08-23T03:18:52.478Z,960.14
2022-08-23T03:20:52.327Z,960.09
2022-08-23T03:21:52.321Z,960.12
2022-08-23T03:22:54.298Z,960.15
2022-08-23T03:23:52.495Z,960.18
2022-08-23T03:24:52.387Z,960.16
2022-08-23T03:25:52.325Z,960.18
2022-08-23T03:26:52.426Z,960.15
2022-08-23T03:27:52.335Z,960.21
2022-08-23T03:28:52.348Z,960.17
2022-08-23T03:29:52.499Z,960.19
2022-08-23T03:30:52.351Z,960.2
2022-08-23T03:31:53.899Z,960.17
2022-08-23T03:32:52.442Z,960.23
2022-08-23T03:33:52.351Z,960.2
2022-08-23T03:34:52.352Z,960.21
2022-08-23T03:36:52.408Z,960.23
2022-08-23T03:37:54.732Z,960.22
2022-08-23T03:38:52.439Z,960.27
2022-08-23T03:39:52.403Z,960.25
2022-08-23T03:40:52.475Z,960.21
2022-08-23T03:41:52.375Z,960.26
2022-08-23T03:44:54.092Z,960.25
2022-08-23T03:45:52.540Z,960.3
2022-08-23T03:46:52.382Z,960.26
2022-08-23T03:47:52.378Z,960.29
2022-08-23T03:48:52.392Z,960.26
2022-08-23T03:49:52.386Z,960.31
2022-08-23T03:50:54.453Z,960.27
2022-08-23T03:51:52.688Z,960.25
2022-08-23T03:52:52.391Z,960.2
2022-08-23T03:53:52.397Z,960.25
2022-08-23T03:55:52.411Z,960.24
2022-08-23T03:56:52.403Z,960.25
2022-08-23T03:58:52.416Z,960.21
2022-08-23T03:59:52.412Z,960.22
2022-08-23T04:00:52.408Z,960.28
2022-08-23T04:01:52.458Z,960.27
2022-08-23T04:02:52.423Z,960.28
2022-08-23T04:03:52.434Z,960.24
2022-08-23T04:04:52.506Z,960.27
2022-08-23T04:05:52.440Z,960.31
2022-08-23T04:06:52.559Z,960.32
2022-08-23T04:07:52.436Z,960.34
2022-08-23T04:08:52.434Z,960.36
2022-08-23T04:09:55.099Z,960.31
2022-08-23T04:10:52.444Z,960.39
2022-08-23T04:11:52.568Z,960.4
2022-08-23T04:13:52.514Z,960.44
2022-08-23T04:14:52.458Z,960.39
2022-08-23T04:15:52.459Z,960.45
2022-08-23T04:17:52.455Z,960.43
2022-08-23T04:19:52.493Z,960.41
2022-08-23T04:20:52.468Z,960.39
2022-08-23T04:21:52.466Z,960.49
2022-08-23T04:22:52.482Z,960.46
2022-08-23T04:23:52.475Z,960.48
2022-08-23T04:24:52.489Z,960.44
2022-08-23T04:26:52.482Z,960.47
2022-08-23T04:27:52.500Z,960.48
2022-08-23T04:28:52.482Z,960.51
2022-08-23T04:29:52.504Z,960.49
2022-08-23T04:30:52.489Z,960.57
2022-08-23T04:32:52.524Z,960.61
2022-08-23T04:33:52.751Z,960.6
2022-08-23T04:34:52.492Z,960.57
2022-08-23T04:35:52.520Z,960.61
2022-08-23T04:38:52.788Z,960.64
2022-08-23T04:39:52.816Z,960.63
2022-08-23T04:40:52.516Z,960.61
2022-08-23T04:41:52.524Z,960.68
2022-08-23T04:42:52.524Z,960.64
2022-08-23T04:43:52.527Z,960.68
2022-08-23T04:44:52.537Z,960.66
2022-08-23T04:45:52.536Z,960.68
2022-08-23T04:46:52.530Z,960.66
2022-08-23T04:48:52.540Z,960.65
2022-08-23T04:49:52.531Z,960.67
2022-08-23T04:50:52.640Z,960.66
2022-08-23T04:51:52.869Z,960.67
2022-08-23T04:52:52.707Z,960.68
2022-08-23T04:53:52.548Z,960.67
2022-08-23T04:55:52.558Z,960.7
2022-08-23T04:56:52.553Z,960.69
2022-08-23T04:57:52.561Z,960.67
2022-08-23T04:58:52.554Z,960.73
2022-08-23T04:59:52.558Z,960.71
2022-08-23T05:00:52.606Z,960.73
2022-08-23T05:01:52.564Z,960.74
2022-08-23T05:02:52.576Z,960.75
2022-08-23T05:03:52.566Z,960.74
2022-08-23T05:04:52.691Z,960.79
2022-08-23T05:05:52.578Z,960.78
2022-08-23T05:06:52.575Z,960.82
2022-08-23T05:07:52.701Z,960.73
2022-08-23T05:08:52.673Z,960.77
2022-08-23T05:09:52.628Z,960.78
2022-08-23T05:10:52.585Z,960.81
2022-08-23T05:11:52.586Z,960.82
2022-08-23T05:14:52.665Z,960.79
2022-08-23T05:15:52.625Z,960.84
2022-08-23T05:17:52.673Z,960.82
2022-08-23T05:18:52.607Z,960.87
2022-08-23T05:19:52.609Z,960.91
2022-08-23T05:20:52.673Z,960.89
2022-08-23T05:21:56.431Z,960.91
2022-08-23T05:22:52.726Z,960.9
2022-08-23T05:23:54.882Z,960.93
2022-08-23T05:24:52.888Z,960.95
2022-08-23T05:25:53.500Z,960.91
2022-08-23T05:26:52.739Z,960.94
2022-08-23T05:28:52.728Z,960.89
2022-08-23T05:29:52.644Z,960.9
2022-08-23T05:31:52.639Z,960.92
2022-08-23T05:32:52.643Z,960.94
2022-08-23T05:33:52.639Z,960.91
2022-08-23T05:34:52.651Z,960.94
2022-08-23T05:35:52.643Z,961
2022-08-23T05:37:52.864Z,961.03
2022-08-23T05:39:52.677Z,961.07
2022-08-23T05:40:52.669Z,961.06
2022-08-23T05:41:52.794Z,961.04
2022-08-23T05:42:52.664Z,961.1
2022-08-23T05:43:52.673Z,961.01
2022-08-23T05:44:52.759Z,961.08
2022-08-23T05:46:52.748Z,961.07
2022-08-23T05:47:52.806Z,961.1
2022-08-23T05:48:52.785Z,961.08
2022-08-23T05:49:52.750Z,961.1
2022-08-23T05:51:52.681Z,961.06
2022-08-23T05:52:52.686Z,961.13
2022-08-23T05:53:52.681Z,961.14
2022-08-23T05:54:52.807Z,961.11
2022-08-23T05:55:52.701Z,961.12
2022-08-23T05:56:52.692Z,961.15
2022-08-23T05:57:52.797Z,961.14
2022-08-23T05:58:55.503Z,961.15
2022-08-23T05:59:52.845Z,961.17
2022-08-23T06:00:52.850Z,961.18
2022-08-23T06:01:52.715Z,961.2
2022-08-23T06:02:52.722Z,961.22
2022-08-23T06:03:52.714Z,961.24
2022-08-23T06:04:56.836Z,961.25
2022-08-23T06:06:52.810Z,961.27
2022-08-23T06:07:52.724Z,961.31
2022-08-23T06:08:52.736Z,961.3
2022-08-23T06:09:52.737Z,961.27
2022-08-23T06:10:52.917Z,961.36
2022-08-23T06:11:52.740Z,961.33
2022-08-23T06:12:52.741Z,961.36
2022-08-23T06:13:52.939Z,961.35
2022-08-23T06:14:52.749Z,961.39
2022-08-23T06:15:52.740Z,961.35
2022-08-23T06:16:55.697Z,961.44
2022-08-23T06:18:52.827Z,961.41
2022-08-23T06:19:52.759Z,961.44
2022-08-23T06:20:52.793Z,961.41
2022-08-23T06:21:52.767Z,961.44
2022-08-23T06:22:52.799Z,961.46
2022-08-23T06:24:52.765Z,961.45
2022-08-23T06:25:52.774Z,961.44
2022-08-23T06:26:52.776Z,961.47
2022-08-23T06:28:52.830Z,961.45
2022-08-23T06:29:52.783Z,961.48
2022-08-23T06:30:52.921Z,961.5
2022-08-23T06:32:52.862Z,961.52
2022-08-23T06:37:52.858Z,961.54
2022-08-23T06:38:52.931Z,961.57
2022-08-23T06:39:53.015Z,961.56
2022-08-23T06:40:52.808Z,961.53
2022-08-23T06:41:52.896Z,961.57
2022-08-23T06:42:52.929Z,961.56
2022-08-23T06:43:52.819Z,961.55
2022-08-23T06:44:52.816Z,961.53
2022-08-23T06:45:55.157Z,961.57
2022-08-23T06:46:53.058Z,961.58
2022-08-23T06:49:57.350Z,961.57
2022-08-23T06:50:52.834Z,961.62
2022-08-23T06:52:52.834Z,961.64
2022-08-23T06:53:52.845Z,961.65
2022-08-23T06:54:53.126Z,961.68
2022-08-23T06:56:52.850Z,961.7
2022-08-23T06:57:52.864Z,961.62
2022-08-23T06:58:52.851Z,961.74
2022-08-23T06:59:52.852Z,961.76
2022-08-23T07:00:56.828Z,961.85
2022-08-23T07:01:53.127Z,962.07
2022-08-23T07:02:53.031Z,962.29
2022-08-23T07:03:52.896Z,962.45
2022-08-23T07:04:52.867Z,962.55
2022-08-23T07:05:52.868Z,962.67
2022-08-23T07:06:52.865Z,962.7
2022-08-23T07:07:52.875Z,962.77
2022-08-23T07:08:52.878Z,962.8
2022-08-23T07:09:52.880Z,962.75
2022-08-23T07:10:52.964Z,962.69
2022-08-23T07:11:52.885Z,962.62
2022-08-23T07:13:52.969Z,962.58
2022-08-23T07:14:52.898Z,962.56
2022-08-23T07:15:52.958Z,962.55
2022-08-23T07:16:52.897Z,962.51
2022-08-23T07:17:52.903Z,962.54
2022-08-23T07:18:53.012Z,962.51
2022-08-23T07:19:52.897Z,962.54
2022-08-23T07:20:52.906Z,962.46
2022-08-23T07:21:53.011Z,962.47
2022-08-23T07:23:52.919Z,962.38
2022-08-23T07:24:52.932Z,962.32
2022-08-23T07:25:52.983Z,962.34
2022-08-23T07:26:52.915Z,962.31
2022-08-23T07:27:52.931Z,962.29
2022-08-23T07:28:52.927Z,962.27
2022-08-23T07:29:52.953Z,962.31
2022-08-23T07:30:52.925Z,962.28
2022-08-23T07:31:53.096Z,962.22
2022-08-23T07:32:52.933Z,962.24
2022-08-23T07:33:52.936Z,962.23
2022-08-23T07:34:52.994Z,962.25
2022-08-23T07:35:52.946Z,962.24
2022-08-23T07:37:52.949Z,962.23
2022-08-23T07:38:52.969Z,962.09
2022-08-23T07:39:52.971Z,962.16
2022-08-23T07:40:53.856Z,962.18
2022-08-23T07:41:52.966Z,962.17
2022-08-23T07:42:58.828Z,962.21
2022-08-23T07:43:53.009Z,962.19
2022-08-23T07:44:53.172Z,962.18
2022-08-23T07:45:53.046Z,962.13
2022-08-23T07:48:54.552Z,962.14
2022-08-23T07:49:53.094Z,962.1
2022-08-23T07:51:53.177Z,962.14
2022-08-23T07:52:52.986Z,962.18
2022-08-23T07:53:52.985Z,962.12
2022-08-23T07:54:53.019Z,962.17
2022-08-23T07:55:53.002Z,962.18
2022-08-23T07:56:53.001Z,962.11
2022-08-23T07:57:52.997Z,962.09
2022-08-23T07:58:53.030Z,962.1
2022-08-23T07:59:53.006Z,962.13
2022-08-23T08:01:53.024Z,962.14
2022-08-23T08:03:53.009Z,962.21
2022-08-23T08:04:53.142Z,962.19
2022-08-23T08:05:53.018Z,962.21
2022-08-23T08:07:10.773Z,962.16
2022-08-23T08:07:53.035Z,962.17
2022-08-23T08:08:53.108Z,962.16
2022-08-23T08:09:53.034Z,962.19
2022-08-23T08:11:53.034Z,962.15
2022-08-23T08:12:53.043Z,962.13
2022-08-23T08:13:53.044Z,962.16
2022-08-23T08:14:53.046Z,962.17
2022-08-23T08:15:53.062Z,962.18
2022-08-23T08:16:53.050Z,962.19
2022-08-23T08:17:53.050Z,962.18
2022-08-23T08:18:53.100Z,962.23
2022-08-23T08:19:53.058Z,962.27
2022-08-23T08:20:53.059Z,962.29
2022-08-23T08:21:53.085Z,962.3
2022-08-23T08:22:56.458Z,962.29
2022-08-23T08:23:53.060Z,962.26
2022-08-23T08:24:53.076Z,962.22
2022-08-23T08:26:53.075Z,962.26
2022-08-23T08:27:53.076Z,962.28
2022-08-23T08:28:53.081Z,962.27
2022-08-23T08:29:53.086Z,962.28
2022-08-23T08:30:53.157Z,962.23
2022-08-23T08:31:54.383Z,962.21
2022-08-23T08:32:53.094Z,962.14
2022-08-23T08:33:53.094Z,962.18
2022-08-23T08:34:53.097Z,962.15
2022-08-23T08:37:53.209Z,962.16
2022-08-23T08:38:55.480Z,962.15
2022-08-23T08:39:53.146Z,962.16
2022-08-23T08:40:53.200Z,962.13
2022-08-23T08:41:54.119Z,962.12
2022-08-23T08:42:53.108Z,962.06
2022-08-23T08:43:53.122Z,962.07
2022-08-23T08:44:53.123Z,962.11
2022-08-23T08:45:58.609Z,962.07
2022-08-23T08:46:53.224Z,962.13
2022-08-23T08:47:53.130Z,962.1
2022-08-23T08:49:53.139Z,962.07
2022-08-23T08:50:53.139Z,962.08
2022-08-23T08:51:53.143Z,962.06
2022-08-23T08:52:53.139Z,962.02
2022-08-23T08:54:53.506Z,961.96
2022-08-23T08:55:53.167Z,962.02
2022-08-23T08:56:53.155Z,962.04
2022-08-23T08:58:53.265Z,962.11
2022-08-23T08:59:53.155Z,962.14
2022-08-23T09:01:53.206Z,962.18
2022-08-23T09:02:53.334Z,962.17
2022-08-23T09:03:53.173Z,962.19
2022-08-23T09:04:53.899Z,962.16
2022-08-23T09:05:53.170Z,962.2
2022-08-23T09:06:53.175Z,962.18
2022-08-23T09:07:53.177Z,962.11
2022-08-23T09:08:53.200Z,962.07
2022-08-23T09:09:53.187Z,962.05
2022-08-23T09:11:53.192Z,961.99
2022-08-23T09:12:53.195Z,962.02
2022-08-23T09:13:53.195Z,962.03
2022-08-23T09:15:53.264Z,962.05
2022-08-23T09:16:53.196Z,962.03
2022-08-23T09:17:53.221Z,962.07
2022-08-23T09:18:53.214Z,962.08
2022-08-23T09:19:53.216Z,962.03
2022-08-23T09:20:53.216Z,962.05
2022-08-23T09:21:53.212Z,962.06
2022-08-23T09:22:53.315Z,962.03
2022-08-23T09:24:53.242Z,962.07
2022-08-23T09:25:53.225Z,962.05
2022-08-23T09:26:53.323Z,962.04
2022-08-23T09:27:53.231Z,961.99
2022-08-23T09:28:53.251Z,962.04
2022-08-23T09:29:53.242Z,962.03
2022-08-23T09:30:53.265Z,961.97
2022-08-23T09:31:53.293Z,962
2022-08-23T09:32:53.242Z,961.93
2022-08-23T09:34:53.258Z,961.98
2022-08-23T09:35:53.252Z,961.92
2022-08-23T09:37:53.260Z,962
2022-08-23T09:39:53.325Z,962.01
2022-08-23T09:40:53.267Z,961.97
2022-08-23T09:41:53.266Z,961.98
2022-08-23T09:42:53.265Z,961.88
2022-08-23T09:43:53.273Z,961.94
2022-08-23T09:44:53.359Z,961.95
2022-08-23T09:45:53.333Z,961.93
2022-08-23T09:46:53.276Z,961.9
2022-08-23T09:47:53.343Z,961.86
2022-08-23T09:48:53.285Z,961.88
2022-08-23T09:49:53.289Z,961.82
2022-08-23T09:50:53.285Z,961.81
2022-08-23T09:51:54.281Z,961.84
2022-08-23T09:52:53.388Z,961.78
2022-08-23T09:53:53.313Z,961.8
2022-08-23T09:54:55.782Z,961.81
2022-08-23T09:55:53.311Z,961.79
2022-08-23T09:56:53.303Z,961.83
2022-08-23T09:57:53.324Z,961.84
2022-08-23T09:58:53.395Z,961.82
2022-08-23T09:59:53.313Z,961.83
2022-08-23T10:00:53.319Z,961.75
2022-08-23T10:01:53.347Z,961.71
2022-08-23T10:02:53.374Z,961.65
2022-08-23T10:03:53.323Z,961.68
2022-08-23T10:05:53.337Z,961.65
2022-08-23T10:06:53.339Z,961.63
2022-08-23T10:07:53.331Z,961.67
2022-08-23T10:08:53.335Z,961.63
2022-08-23T10:09:53.349Z,961.66
2022-08-23T10:10:53.348Z,961.63
2022-08-23T10:11:53.345Z,961.64
2022-08-23T10:12:53.349Z,961.68
2022-08-23T10:13:53.353Z,961.59
2022-08-23T10:15:53.598Z,961.56
2022-08-23T10:16:53.371Z,961.55
2022-08-23T10:18:53.368Z,961.58
2022-08-23T10:19:53.370Z,961.59
2022-08-23T10:20:53.490Z,961.63
2022-08-23T10:21:53.377Z,961.6
2022-08-23T10:22:53.398Z,961.63
2022-08-23T10:25:53.393Z,961.64
2022-08-23T10:26:53.404Z,961.63
2022-08-23T10:27:53.394Z,961.66
2022-08-23T10:28:53.385Z,961.65
2022-08-23T10:29:53.410Z,961.66
2022-08-23T10:30:53.501Z,961.67
2022-08-23T10:31:56.790Z,961.6
2022-08-23T10:34:53.421Z,961.63
2022-08-23T10:35:53.406Z,961.54
2022-08-23T10:36:53.418Z,961.53
2022-08-23T10:37:53.423Z,961.51
2022-08-23T10:38:53.512Z,961.57
2022-08-23T10:39:53.497Z,961.56
2022-08-23T10:40:53.420Z,961.54
2022-08-23T10:41:53.426Z,961.57
2022-08-23T10:42:53.418Z,961.56
2022-08-23T10:43:53.421Z,961.54
2022-08-23T10:46:53.565Z,961.5
2022-08-23T10:47:53.448Z,961.52
2022-08-23T10:48:53.450Z,961.47
2022-08-23T10:49:53.452Z,961.48
2022-08-23T10:50:55.640Z,961.46
2022-08-23T10:51:53.449Z,961.45
2022-08-23T10:52:53.450Z,961.47
2022-08-23T10:53:53.448Z,961.48
2022-08-23T10:54:53.455Z,961.45
2022-08-23T10:55:53.473Z,961.44
2022-08-23T10:56:53.470Z,961.45
2022-08-23T10:58:53.474Z,961.37
2022-08-23T10:59:53.473Z,961.41
2022-08-23T11:00:53.477Z,961.35
2022-08-23T11:01:53.536Z,961.34
2022-08-23T11:02:53.631Z,961.36
2022-08-23T11:03:53.520Z,961.35
2022-08-23T11:04:53.483Z,961.36
2022-08-23T11:06:53.482Z,961.32
2022-08-23T11:07:53.504Z,961.35
2022-08-23T11:09:53.598Z,961.37
2022-08-23T11:10:56.585Z,961.35
2022-08-23T11:11:53.494Z,961.3
2022-08-23T11:12:53.515Z,961.31
2022-08-23T11:14:53.516Z,961.32
2022-08-23T11:16:53.514Z,961.33
2022-08-23T11:17:53.514Z,961.34
2022-08-23T11:18:53.527Z,961.3
2022-08-23T11:19:53.522Z,961.29
2022-08-23T11:20:53.520Z,961.26
2022-08-23T11:21:53.642Z,961.22
2022-08-23T11:23:53.536Z,961.21
2022-08-23T11:24:53.532Z,961.23
2022-08-23T11:25:53.535Z,961.19
2022-08-23T11:27:53.544Z,961.21
2022-08-23T11:28:53.550Z,961.2
2022-08-23T11:30:53.730Z,961.18
2022-08-23T11:32:53.888Z,961.16
2022-08-23T11:34:53.565Z,961.13
2022-08-23T11:36:53.563Z,961.16
2022-08-23T11:37:53.571Z,961.13
2022-08-23T11:39:53.609Z,961.07
2022-08-23T11:41:53.585Z,961.1
2022-08-23T11:42:53.583Z,961.17
2022-08-23T11:43:53.631Z,961.13
2022-08-23T11:44:53.595Z,961.17
2022-08-23T11:45:53.640Z,961.18
2022-08-23T11:47:53.595Z,961.15
2022-08-23T11:48:53.610Z,961.18
2022-08-23T11:49:53.600Z,961.19
2022-08-23T11:50:57.987Z,961.2
2022-08-23T11:52:53.603Z,961.04
2022-08-23T11:53:53.619Z,960.97
2022-08-23T11:54:53.622Z,960.99
2022-08-23T11:55:53.619Z,960.96
2022-08-23T11:57:53.632Z,960.88
2022-08-23T11:58:53.622Z,960.91
2022-08-23T11:59:53.637Z,960.89
2022-08-23T12:00:53.665Z,960.94
2022-08-23T12:01:53.658Z,960.91
2022-08-23T12:02:53.697Z,960.94
2022-08-23T12:03:53.692Z,960.92
2022-08-23T12:04:53.762Z,960.91
2022-08-23T12:06:53.668Z,960.92
2022-08-23T12:07:53.651Z,960.91
2022-08-23T12:08:53.653Z,960.93
2022-08-23T12:09:53.654Z,960.94
2022-08-23T12:10:53.660Z,960.88
2022-08-23T12:12:53.663Z,960.9
2022-08-23T12:13:53.667Z,960.94
2022-08-23T12:14:53.665Z,960.98
2022-08-23T12:16:55.070Z,961.01
2022-08-23T12:17:53.769Z,960.99
2022-08-23T12:20:53.674Z,960.97
2022-08-23T12:21:53.705Z,960.93
2022-08-23T12:22:53.699Z,960.95
2022-08-23T12:23:53.706Z,960.96
2022-08-23T12:24:53.698Z,960.97
2022-08-23T12:25:53.692Z,960.96
2022-08-23T12:26:53.704Z,960.95
2022-08-23T12:27:53.732Z,960.93
2022-08-23T12:28:53.705Z,960.91
2022-08-23T12:29:53.710Z,960.89
2022-08-23T12:31:53.717Z,960.92
2022-08-23T12:32:53.734Z,960.91
2022-08-23T12:33:53.707Z,960.93
2022-08-23T12:34:53.797Z,960.96
2022-08-23T12:36:53.732Z,961.01
2022-08-23T12:37:53.733Z,961
2022-08-23T12:39:53.741Z,960.99
2022-08-23T12:40:54.390Z,960.97
2022-08-23T12:41:53.737Z,960.94
2022-08-23T12:43:53.813Z,960.91
2022-08-23T12:44:53.772Z,960.89
2022-08-23T12:45:53.801Z,960.92
2022-08-23T12:48:53.752Z,960.94
2022-08-23T12:50:53.762Z,960.91
2022-08-23T12:51:53.764Z,960.9
2022-08-23T12:52:53.763Z,960.91
2022-08-23T12:53:53.776Z,960.89
2022-08-23T12:55:53.779Z,960.9
2022-08-23T12:56:53.898Z,960.89
2022-08-23T12:57:53.774Z,960.87
2022-08-23T12:58:53.784Z,960.81
2022-08-23T12:59:53.924Z,960.85
2022-08-23T13:00:53.793Z,960.82
2022-08-23T13:01:53.889Z,960.85
2022-08-23T13:02:53.831Z,960.82
2022-08-23T13:04:53.796Z,960.78
2022-08-23T13:05:53.897Z,960.83
2022-08-23T13:06:53.803Z,960.77
2022-08-23T13:07:53.795Z,960.81
2022-08-23T13:08:53.814Z,960.79
2022-08-23T13:09:55.430Z,960.83
2022-08-23T13:10:53.806Z,960.79
2022-08-23T13:11:53.826Z,960.81
2022-08-23T13:13:53.827Z,960.79
2022-08-23T13:14:53.830Z,960.75
2022-08-23T13:15:53.887Z,960.74
2022-08-23T13:16:53.841Z,960.72
2022-08-23T13:18:53.839Z,960.68
2022-08-23T13:19:53.831Z,960.67
2022-08-23T13:20:53.841Z,960.71
2022-08-23T13:22:53.844Z,960.69
2022-08-23T13:23:53.861Z,960.7
2022-08-23T13:25:06.080Z,960.73
2022-08-23T13:25:53.874Z,960.67
2022-08-23T13:26:53.853Z,960.65
2022-08-23T13:28:53.868Z,960.7
2022-08-23T13:29:53.862Z,960.69
2022-08-23T13:30:53.956Z,960.7
2022-08-23T13:31:53.872Z,960.74
2022-08-23T13:32:53.870Z,960.68
2022-08-23T13:34:53.873Z,960.69
2022-08-23T13:35:53.874Z,960.63
2022-08-23T13:37:53.891Z,960.64
2022-08-23T13:38:53.885Z,960.63
2022-08-23T13:39:53.933Z,960.66
2022-08-23T13:40:53.891Z,960.68
2022-08-23T13:41:53.889Z,960.7
2022-08-23T13:42:53.892Z,960.72
2022-08-23T13:44:53.959Z,960.75
2022-08-23T13:45:53.982Z,960.72
2022-08-23T13:46:53.898Z,960.69
2022-08-23T13:47:53.916Z,960.66
2022-08-23T13:48:53.909Z,960.67
2022-08-23T13:49:53.934Z,960.68
2022-08-23T13:50:53.977Z,960.63
2022-08-23T13:51:53.916Z,960.67
2022-08-23T13:53:53.923Z,960.65
2022-08-23T13:54:54.043Z,960.72
2022-08-23T13:55:53.941Z,960.76
2022-08-23T13:56:53.927Z,960.75
2022-08-23T13:57:54.899Z,960.77
2022-08-23T13:58:53.945Z,960.74
2022-08-23T13:59:53.989Z,960.79
2022-08-23T14:00:55.170Z,960.72
2022-08-23T14:01:53.944Z,960.64
2022-08-23T14:02:53.959Z,960.62
2022-08-23T14:04:53.994Z,960.63
2022-08-23T14:05:53.958Z,960.61
2022-08-23T14:06:53.965Z,960.67
2022-08-23T14:07:53.981Z,960.68
2022-08-23T14:09:55.165Z,960.65
2022-08-23T14:10:53.980Z,960.67
2022-08-23T14:11:53.976Z,960.65
2022-08-23T14:13:54.035Z,960.68
2022-08-23T14:14:54.100Z,960.67
2022-08-23T14:15:54.270Z,960.61
2022-08-23T14:16:54.143Z,960.63
2022-08-23T14:17:53.989Z,960.65
2022-08-23T14:19:18.146Z,960.69
2022-08-23T14:20:32.227Z,960.68
2022-08-23T14:20:54.132Z,960.67
2022-08-23T14:22:54.013Z,960.56
2022-08-23T14:23:54.007Z,960.59
2022-08-23T14:25:54.019Z,960.56
2022-08-23T14:26:54.013Z,960.54
2022-08-23T14:28:54.325Z,960.53
2022-08-23T14:29:54.321Z,960.52
2022-08-23T14:30:54.034Z,960.53
2022-08-23T14:32:54.024Z,960.55
2022-08-23T14:33:54.721Z,960.54
2022-08-23T14:34:54.130Z,960.57
2022-08-23T14:35:54.056Z,960.6
2022-08-23T14:38:02.723Z,960.61
2022-08-23T14:38:04.463Z,960.63
2022-08-23T14:38:54.057Z,960.6
2022-08-23T14:39:54.214Z,960.58
2022-08-23T14:40:54.172Z,960.53
2022-08-23T14:41:54.055Z,960.54
2022-08-23T14:43:54.052Z,960.57
2022-08-23T14:44:54.072Z,960.61
2022-08-23T14:45:54.132Z,960.58
2022-08-23T14:46:54.080Z,960.56
2022-08-23T14:51:54.084Z,960.59
2022-08-23T14:52:54.116Z,960.55
2022-08-23T14:53:54.091Z,960.56
2022-08-23T14:54:54.086Z,960.57
2022-08-23T14:56:07.077Z,960.58